Time;durP1;ratioP1;P1;durP2;ratioP2;P2;SDS_P1;SDS_P2;PMS_P1;PMS_P2;Temp;Humidity;BMP_temperature;BMP_pressure;BME280_temperature;BME280_humidity;BME280_pressure;Samples;Min_cycle;Max_cycle;Signal;HPM_P1;HPM_P2
2022/01/11 00:00:25;;;;;;;;;;;12.60;99.90;;;;;;5016449;28;951;-44
2022/01/11 00:02:55;;;;;;;;;;;12.60;99.90;;;;;;4998424;28;1006;-44
2022/01/11 00:05:28;;;;;;;;;;;12.60;99.90;;;;;;5015222;28;1412;-44
2022/01/11 00:07:55;;;;;;;;;;;12.60;99.90;;;;;;5015149;28;1286;-44
2022/01/11 00:10:28;;;;;;;;;;;12.60;99.90;;;;;;5014237;28;1421;-44
2022/01/11 00:12:59;;;;;;;;;;;12.60;99.90;;;;;;5015762;28;1966;-44
2022/01/11 00:15:27;;;;;;;;;;;12.60;99.90;;;;;;4998511;28;1912;-44
2022/01/11 00:17:57;;;;;;;;;;;12.60;99.90;;;;;;5024144;28;1546;-55
2022/01/11 00:20:27;;;;;;;;;;;12.60;99.90;;;;;;5034977;28;878;-54
2022/01/11 00:25:30;;;;;;;;;;;12.60;99.90;;;;;;5035733;28;884;-54
2022/01/11 00:27:57;;;;;;;;;;;12.60;99.90;;;;;;5016541;28;1803;-54
2022/01/11 00:30:30;;;;;;;;;;;12.60;99.90;;;;;;5034548;28;970;-55
2022/01/11 00:32:59;;;;;;;;;;;12.60;99.90;;;;;;5035863;28;1974;-54
2022/01/11 00:35:38;;;;;;;;;;;12.70;99.90;;;;;;5035665;28;922;-56
2022/01/11 00:38:04;;;;;;;;;;;12.70;99.90;;;;;;5035676;28;818;-55
2022/01/11 00:40:30;;;;;;;;;;;12.70;99.90;;;;;;5035546;28;1069;-54
2022/01/11 00:43:00;;;;;;;;;;;12.70;99.90;;;;;;5035488;28;852;-55
2022/01/11 00:45:26;;;;;;;;;;;12.70;99.90;;;;;;5036493;28;1446;-55
2022/01/11 00:47:57;;;;;;;;;;;12.70;99.90;;;;;;5039006;28;909;-54
2022/01/11 00:50:25;;;;;;;;;;;12.70;99.90;;;;;;5039624;28;898;-55
2022/01/11 00:52:53;;;;;;;;;;;12.70;99.90;;;;;;5020750;28;1598;-55
2022/01/11 00:55:20;;;;;;;;;;;12.70;99.90;;;;;;5005338;28;1910;-54
2022/01/11 00:57:47;;;;;;;;;;;12.80;99.90;;;;;;5039115;28;857;-55
2022/01/11 01:00:14;;;;;;;;;;;12.80;99.90;;;;;;5004855;28;1105;-54
2022/01/11 01:02:41;;;;;;;;;;;12.80;99.90;;;;;;5039056;28;1003;-55
2022/01/11 01:05:12;;;;;;;;;;;12.90;99.90;;;;;;5021488;28;894;-55
2022/01/11 01:07:39;;;;;;;;;;;12.90;99.90;;;;;;5039144;28;846;-55
2022/01/11 01:10:13;;;;;;;;;;;12.90;99.90;;;;;;5004506;28;1059;-55
2022/01/11 01:12:40;;;;;;;;;;;12.90;99.90;;;;;;5034966;28;1246;-55
2022/01/11 01:15:06;;;;;;;;;;;12.90;99.90;;;;;;5038770;28;1974;-54
2022/01/11 01:17:34;;;;;;;;;;;12.90;99.90;;;;;;5038688;28;1169;-54
2022/01/11 01:20:00;;;;;;;;;;;12.90;99.90;;;;;;5039280;28;896;-45
2022/01/11 01:22:27;;;;;;;;;;;12.90;99.90;;;;;;5038090;28;1134;-45
2022/01/11 01:24:54;;;;;;;;;;;12.90;99.90;;;;;;5038768;28;848;-45
2022/01/11 01:27:21;;;;;;;;;;;12.90;99.90;;;;;;5038615;28;896;-56
2022/01/11 01:29:47;;;;;;;;;;;12.90;99.90;;;;;;5041361;28;1061;-55
2022/01/11 01:32:14;;;;;;;;;;;12.90;99.90;;;;;;5004617;28;1059;-55
2022/01/11 01:34:40;;;;;;;;;;;12.90;99.90;;;;;;5038522;28;1969;-55
2022/01/11 01:37:07;;;;;;;;;;;12.90;99.90;;;;;;5038869;28;829;-54
2022/01/11 01:39:35;;;;;;;;;;;12.90;99.90;;;;;;5020803;28;956;-54
2022/01/11 01:42:08;;;;;;;;;;;12.90;99.90;;;;;;5032361;28;821;-55
2022/01/11 01:44:35;;;;;;;;;;;12.90;99.90;;;;;;5038103;28;844;-54
2022/01/11 01:47:05;;;;;;;;;;;12.90;99.90;;;;;;5020797;28;862;-54
2022/01/11 01:49:39;;;;;;;;;;;12.90;99.90;;;;;;5020568;28;912;-55
2022/01/11 01:52:06;;;;;;;;;;;12.90;99.90;;;;;;5004081;28;1074;-54
2022/01/11 01:54:32;;;;;;;;;;;12.90;99.90;;;;;;5038261;28;1961;-54
2022/01/11 01:56:59;;;;;;;;;;;12.90;99.90;;;;;;5036439;28;1071;-54
2022/01/11 01:59:25;;;;;;;;;;;12.90;99.90;;;;;;5020269;28;908;-55
2022/01/11 02:01:52;;;;;;;;;;;12.90;99.90;;;;;;5037646;28;1305;-55
2022/01/11 02:04:21;;;;;;;;;;;12.90;99.90;;;;;;5038006;28;1068;-54
2022/01/11 02:06:49;;;;;;;;;;;12.90;99.90;;;;;;5037884;28;912;-55
2022/01/11 02:09:16;;;;;;;;;;;12.90;99.90;;;;;;5037964;28;1031;-54
2022/01/11 02:11:46;;;;;;;;;;;13.00;99.90;;;;;;5035776;28;882;-44
2022/01/11 02:14:12;;;;;;;;;;;13.00;99.90;;;;;;5035916;28;1968;-44
2022/01/11 02:16:39;;;;;;;;;;;13.00;99.90;;;;;;5036146;28;885;-44
2022/01/11 02:19:05;;;;;;;;;;;13.00;99.90;;;;;;4995595;28;1245;-44
2022/01/11 02:21:34;;;;;;;;;;;13.00;99.90;;;;;;4963888;28;1512;-47
2022/01/11 02:24:01;;;;;;;;;;;13.00;99.90;;;;;;4981142;28;1267;-45
2022/01/11 02:26:29;;;;;;;;;;;13.00;99.90;;;;;;4964098;28;1458;-44
2022/01/11 02:29:00;;;;;;;;;;;13.00;99.90;;;;;;4985626;28;2014;-54
2022/01/11 02:31:26;;;;;;;;;;;13.00;99.90;;;;;;4941930;28;868;-46
2022/01/11 02:33:56;;;;;;;;;;;13.00;99.90;;;;;;4977726;28;1965;-44
2022/01/11 02:36:30;;;;;;;;;;;13.00;99.90;;;;;;4977832;28;837;-44
2022/01/11 02:38:58;;;;;;;;;;;13.00;99.90;;;;;;4961458;28;1080;-44
2022/01/11 02:41:27;;;;;;;;;;;13.00;99.90;;;;;;4977838;28;831;-44
2022/01/11 02:43:56;;;;;;;;;;;12.90;99.90;;;;;;4977572;28;1030;-54
2022/01/11 02:46:23;;;;;;;;;;;12.90;99.90;;;;;;4977526;28;860;-54
2022/01/11 02:48:53;;;;;;;;;;;12.90;99.90;;;;;;4977006;28;1149;-55
2022/01/11 02:51:24;;;;;;;;;;;13.00;99.90;;;;;;4973629;28;979;-54
2022/01/11 02:53:52;;;;;;;;;;;12.90;99.90;;;;;;4961288;28;1902;-55
2022/01/11 02:56:20;;;;;;;;;;;12.90;99.90;;;;;;5001471;28;908;-54
2022/01/11 02:58:48;;;;;;;;;;;12.90;99.90;;;;;;5037087;28;884;-54
2022/01/11 03:01:15;;;;;;;;;;;12.90;99.90;;;;;;5002212;28;1239;-54
2022/01/11 03:03:41;;;;;;;;;;;12.90;99.90;;;;;;5037003;28;771;-54
2022/01/11 03:06:09;;;;;;;;;;;12.90;99.90;;;;;;5033476;28;893;-55
2022/01/11 03:08:38;;;;;;;;;;;12.80;99.90;;;;;;5033363;28;974;-55
2022/01/11 03:11:06;;;;;;;;;;;12.80;99.90;;;;;;5003174;28;988;-54
2022/01/11 03:13:35;;;;;;;;;;;12.90;99.90;;;;;;5019081;28;1977;-55
2022/01/11 03:16:06;;;;;;;;;;;12.90;99.90;;;;;;5019642;28;841;-55
2022/01/11 03:18:32;;;;;;;;;;;12.90;99.90;;;;;;5036389;28;1241;-55
2022/01/11 03:21:01;;;;;;;;;;;12.90;99.90;;;;;;5002154;28;1143;-55
2022/01/11 03:23:27;;;;;;;;;;;12.90;99.90;;;;;;5035147;28;915;-54
2022/01/11 03:25:55;;;;;;;;;;;13.00;99.90;;;;;;5036963;28;1022;-55
2022/01/11 03:28:22;;;;;;;;;;;13.00;99.90;;;;;;5039408;28;1179;-55
2022/01/11 03:30:50;;;;;;;;;;;13.00;99.90;;;;;;5036403;28;1671;-55
2022/01/11 03:33:18;;;;;;;;;;;13.00;99.90;;;;;;5036402;28;857;-55
2022/01/11 03:35:44;;;;;;;;;;;13.00;99.90;;;;;;5036268;28;1971;-54
2022/01/11 03:38:11;;;;;;;;;;;13.00;99.90;;;;;;5033465;28;1690;-55
2022/01/11 03:40:40;;;;;;;;;;;13.00;99.90;;;;;;5002132;28;1014;-54
2022/01/11 03:43:07;;;;;;;;;;;13.00;99.90;;;;;;5036157;28;951;-55
2022/01/11 03:45:36;;;;;;;;;;;13.00;99.90;;;;;;5033825;28;821;-54
2022/01/11 03:48:04;;;;;;;;;;;13.00;99.90;;;;;;5000871;28;940;-54
2022/01/11 03:50:30;;;;;;;;;;;12.90;99.90;;;;;;5018978;28;882;-54
2022/01/11 03:53:00;;;;;;;;;;;12.90;99.90;;;;;;5033930;28;898;-55
2022/01/11 03:58:14;;;;;;;;;;;12.90;99.90;;;;;;5032187;28;1238;-55
2022/01/11 04:00:42;;;;;;;;;;;12.80;99.90;;;;;;5034887;28;913;-54
2022/01/11 04:03:10;;;;;;;;;;;12.80;99.90;;;;;;5034468;28;931;-55
2022/01/11 04:05:36;;;;;;;;;;;12.80;99.90;;;;;;5035888;28;901;-55
2022/01/11 04:08:07;;;;;;;;;;;12.80;99.90;;;;;;5036213;28;805;-54
2022/01/11 04:10:33;;;;;;;;;;;12.80;99.90;;;;;;5035122;28;1263;-55
2022/01/11 04:13:00;;;;;;;;;;;12.80;99.90;;;;;;5033006;28;830;-55
2022/01/11 04:15:26;;;;;;;;;;;12.80;99.90;;;;;;5035720;28;1968;-54
2022/01/11 04:17:52;;;;;;;;;;;12.80;99.90;;;;;;5035717;28;1134;-54
2022/01/11 04:20:21;;;;;;;;;;;12.80;99.90;;;;;;5039459;28;782;-54
2022/01/11 04:22:53;;;;;;;;;;;12.80;99.90;;;;;;5042213;28;790;-55
2022/01/11 04:25:21;;;;;;;;;;;12.90;99.90;;;;;;5042144;28;1016;-55
2022/01/11 04:27:47;;;;;;;;;;;12.90;99.90;;;;;;5042388;28;789;-54
2022/01/11 04:30:14;;;;;;;;;;;12.90;99.90;;;;;;5042006;28;849;-55
2022/01/11 04:32:40;;;;;;;;;;;12.90;99.90;;;;;;5041985;28;831;-55
2022/01/11 04:35:06;;;;;;;;;;;12.90;99.90;;;;;;5042047;28;1992;-55
2022/01/11 04:37:34;;;;;;;;;;;13.00;99.90;;;;;;5007506;28;1030;-55
2022/01/11 04:40:08;;;;;;;;;;;13.00;99.90;;;;;;5008234;28;925;-55
2022/01/11 04:42:34;;;;;;;;;;;12.90;99.90;;;;;;5020117;28;941;-55
2022/01/11 04:45:00;;;;;;;;;;;12.90;99.90;;;;;;5041783;28;1030;-54
2022/01/11 04:47:26;;;;;;;;;;;12.90;99.90;;;;;;5042130;28;806;-54
2022/01/11 04:49:52;;;;;;;;;;;12.90;99.90;;;;;;5024840;28;973;-54
2022/01/11 04:52:19;;;;;;;;;;;12.90;99.90;;;;;;5042088;28;872;-55
2022/01/11 04:54:47;;;;;;;;;;;12.90;99.90;;;;;;5042116;28;1918;-54
2022/01/11 04:57:14;;;;;;;;;;;12.90;99.90;;;;;;5007817;28;921;-55
2022/01/11 04:59:39;;;;;;;;;;;12.90;99.90;;;;;;5023712;28;1119;-55
2022/01/11 05:02:07;;;;;;;;;;;12.90;99.90;;;;;;5041913;28;807;-54
2022/01/11 05:04:33;;;;;;;;;;;12.90;99.90;;;;;;5042092;28;841;-55
2022/01/11 05:06:59;;;;;;;;;;;12.90;99.90;;;;;;5041889;28;902;-55
2022/01/11 05:09:27;;;;;;;;;;;12.90;99.90;;;;;;5041520;28;1292;-54
2022/01/11 05:11:58;;;;;;;;;;;12.90;99.90;;;;;;5007654;28;972;-54
2022/01/11 05:14:25;;;;;;;;;;;12.90;99.90;;;;;;5041982;28;1969;-54
2022/01/11 05:16:52;;;;;;;;;;;12.90;99.90;;;;;;5041726;28;801;-55
2022/01/11 05:19:20;;;;;;;;;;;12.90;99.90;;;;;;5041508;28;1105;-54
2022/01/11 05:21:47;;;;;;;;;;;12.80;99.90;;;;;;5042005;28;778;-55
2022/01/11 05:24:12;;;;;;;;;;;12.80;99.90;;;;;;5007501;28;932;-44
2022/01/11 05:26:40;;;;;;;;;;;12.80;99.90;;;;;;5041689;28;821;-45
2022/01/11 05:29:07;;;;;;;;;;;12.90;99.90;;;;;;5044223;28;959;-44
2022/01/11 05:31:35;;;;;;;;;;;12.90;99.90;;;;;;5033937;28;870;-44
2022/01/11 05:34:02;;;;;;;;;;;12.90;99.90;;;;;;5033367;28;1967;-44
2022/01/11 05:36:31;;;;;;;;;;;12.90;99.90;;;;;;5016251;28;1560;-44
2022/01/11 05:38:57;;;;;;;;;;;12.90;99.90;;;;;;5033867;28;905;-44
2022/01/11 05:41:24;;;;;;;;;;;12.90;99.90;;;;;;5034407;28;880;-44
2022/01/11 05:43:51;;;;;;;;;;;12.90;99.90;;;;;;5038376;28;818;-44
2022/01/11 05:46:18;;;;;;;;;;;12.90;99.90;;;;;;5004129;28;960;-44
2022/01/11 05:48:46;;;;;;;;;;;12.90;99.90;;;;;;5038378;28;860;-44
2022/01/11 05:51:12;;;;;;;;;;;12.90;99.90;;;;;;5038343;28;845;-44
2022/01/11 05:53:39;;;;;;;;;;;12.90;99.90;;;;;;5037836;28;910;-44
2022/01/11 05:56:05;;;;;;;;;;;12.90;99.90;;;;;;5019923;28;1906;-44
2022/01/11 05:58:32;;;;;;;;;;;12.90;99.90;;;;;;5020142;28;1091;-44
2022/01/11 06:00:58;;;;;;;;;;;12.90;99.90;;;;;;5019694;28;1318;-44
2022/01/11 06:03:25;;;;;;;;;;;13.00;99.90;;;;;;5038308;28;986;-44
2022/01/11 06:05:52;;;;;;;;;;;13.00;99.90;;;;;;5037664;28;1302;-54
2022/01/11 06:08:19;;;;;;;;;;;13.00;99.90;;;;;;5038053;28;852;-54
2022/01/11 06:10:50;;;;;;;;;;;13.00;99.90;;;;;;5038229;28;843;-55
2022/01/11 06:13:19;;;;;;;;;;;13.00;99.90;;;;;;5037524;28;802;-55
2022/01/11 06:15:45;;;;;;;;;;;13.00;99.90;;;;;;5036936;28;1910;-44
2022/01/11 06:18:13;;;;;;;;;;;13.00;99.90;;;;;;5037497;28;1150;-44
2022/01/11 06:30:03;;;;;;;;;;;13.00;99.90;;;;;;5089474;22;2231;-55
2022/01/11 06:32:29;;;;;;;;;;;13.00;99.90;;;;;;5046563;28;1135;-55
2022/01/11 06:34:55;;;;;;;;;;;13.00;99.90;;;;;;5056302;28;1989;-55
2022/01/11 06:37:21;;;;;;;;;;;13.10;99.90;;;;;;5033776;28;1595;-55
2022/01/11 06:39:49;;;;;;;;;;;13.10;99.90;;;;;;5038374;28;849;-55
2022/01/11 06:42:15;;;;;;;;;;;13.10;99.90;;;;;;5037078;28;928;-55
2022/01/11 06:44:42;;;;;;;;;;;13.10;99.90;;;;;;5003266;28;915;-55
2022/01/11 06:47:09;;;;;;;;;;;13.10;99.90;;;;;;5038321;28;915;-55
2022/01/11 06:49:35;;;;;;;;;;;13.00;99.90;;;;;;5056157;28;1205;-55
2022/01/11 06:52:01;;;;;;;;;;;13.00;99.90;;;;;;5056396;28;966;-55
2022/01/11 06:54:27;;;;;;;;;;;13.00;99.90;;;;;;5056174;28;1906;-56
2022/01/11 06:56:55;;;;;;;;;;;13.00;99.90;;;;;;5056209;28;758;-55
2022/01/11 06:59:22;;;;;;;;;;;13.00;99.90;;;;;;5055413;28;908;-56
2022/01/11 07:01:50;;;;;;;;;;;13.00;99.90;;;;;;5055508;28;846;-46
2022/01/11 07:04:17;;;;;;;;;;;12.90;99.90;;;;;;5056299;28;785;-45
2022/01/11 07:06:43;;;;;;;;;;;12.90;99.90;;;;;;5010496;28;1031;-45
2022/01/11 07:09:09;;;;;;;;;;;12.90;99.90;;;;;;5037650;28;810;-45
2022/01/11 07:11:35;;;;;;;;;;;12.90;99.90;;;;;;5037808;28;805;-45
2022/01/11 07:14:03;;;;;;;;;;;12.80;99.90;;;;;;5036986;28;1906;-45
2022/01/11 07:16:29;;;;;;;;;;;12.80;99.90;;;;;;5037133;28;980;-45
2022/01/11 07:18:55;;;;;;;;;;;12.80;99.90;;;;;;5037557;28;857;-45
2022/01/11 07:21:21;;;;;;;;;;;12.80;99.90;;;;;;5036939;28;954;-46
2022/01/11 07:23:47;;;;;;;;;;;12.80;99.90;;;;;;5024204;28;974;-45
2022/01/11 07:26:13;;;;;;;;;;;12.80;99.90;;;;;;5056043;28;973;-45
2022/01/11 07:28:39;;;;;;;;;;;12.80;99.90;;;;;;5055511;28;742;-45
2022/01/11 07:31:05;;;;;;;;;;;12.80;99.90;;;;;;5055566;28;1148;-45
2022/01/11 07:33:32;;;;;;;;;;;12.90;99.90;;;;;;5037806;28;1406;-45
2022/01/11 07:35:59;;;;;;;;;;;12.90;99.90;;;;;;5055579;28;1906;-45
2022/01/11 07:38:25;;;;;;;;;;;13.00;99.90;;;;;;5055017;28;1326;-45
2022/01/11 07:40:50;;;;;;;;;;;13.00;99.90;;;;;;5055718;28;1290;-45
2022/01/11 07:43:16;;;;;;;;;;;13.00;99.90;;;;;;5055822;28;1219;-45
2022/01/11 07:45:42;;;;;;;;;;;13.00;99.90;;;;;;5055680;28;1203;-45
2022/01/11 07:48:08;;;;;;;;;;;13.10;99.90;;;;;;5055809;28;1250;-45
2022/01/11 07:50:34;;;;;;;;;;;13.20;99.90;;;;;;5055424;28;1282;-45
2022/01/11 07:53:00;;;;;;;;;;;13.20;99.90;;;;;;5055724;28;1210;-45
2022/01/11 07:55:28;;;;;;;;;;;13.20;99.90;;;;;;5054828;28;1898;-45
2022/01/11 07:57:55;;;;;;;;;;;13.20;99.90;;;;;;5052048;28;1171;-45
2022/01/11 08:00:20;;;;;;;;;;;13.20;99.90;;;;;;5053706;28;1124;-45
2022/01/11 08:02:46;;;;;;;;;;;13.20;99.90;;;;;;5055143;28;795;-45
2022/01/11 08:05:12;;;;;;;;;;;13.20;99.90;;;;;;5054351;28;867;-46
2022/01/11 08:07:39;;;;;;;;;;;13.20;99.90;;;;;;5047898;28;1979;-45
2022/01/11 08:10:06;;;;;;;;;;;13.20;99.90;;;;;;5052185;28;1378;-45
2022/01/11 08:12:32;;;;;;;;;;;13.30;99.90;;;;;;5054083;28;1258;-45
2022/01/11 08:14:58;;;;;;;;;;;13.30;99.90;;;;;;5054564;28;1910;-45
2022/01/11 08:17:28;;;;;;;;;;;13.30;99.90;;;;;;5036246;28;847;-45
2022/01/11 08:19:56;;;;;;;;;;;13.30;99.90;;;;;;5036256;28;855;-45
2022/01/11 08:22:25;;;;;;;;;;;13.30;99.90;;;;;;5036386;28;789;-45
2022/01/11 08:24:52;;;;;;;;;;;13.40;99.90;;;;;;5048009;28;1203;-45
2022/01/11 08:27:19;;;;;;;;;;;13.50;99.90;;;;;;5013565;28;1068;-45
2022/01/11 08:29:46;;;;;;;;;;;13.50;99.90;;;;;;5005620;28;1269;-45
2022/01/11 08:32:12;;;;;;;;;;;13.50;99.90;;;;;;4995045;28;988;-45
2022/01/11 08:34:38;;;;;;;;;;;13.60;99.90;;;;;;4995450;28;2044;-45
2022/01/11 08:37:04;;;;;;;;;;;13.60;99.90;;;;;;4997258;28;965;-45
2022/01/11 08:39:30;;;;;;;;;;;13.60;99.90;;;;;;4995277;28;853;-45
2022/01/11 08:41:57;;;;;;;;;;;13.70;99.90;;;;;;4999468;28;1227;-45
2022/01/11 08:44:24;;;;;;;;;;;13.70;99.90;;;;;;4991307;28;1586;-45
2022/01/11 08:46:50;;;;;;;;;;;13.80;99.90;;;;;;5029545;28;1118;-45
2022/01/11 08:49:16;;;;;;;;;;;13.80;99.90;;;;;;5013469;28;898;-45
2022/01/11 08:51:43;;;;;;;;;;;13.90;99.90;;;;;;5013120;28;991;-45
2022/01/11 08:54:11;;;;;;;;;;;13.90;99.90;;;;;;5013559;28;1089;-45
2022/01/11 08:56:38;;;;;;;;;;;14.00;99.90;;;;;;5019055;28;1318;-45
2022/01/11 08:59:05;;;;;;;;;;;14.00;99.90;;;;;;5047099;28;966;-45
2022/01/11 09:01:34;;;;;;;;;;;14.00;99.90;;;;;;5054252;28;1219;-45
2022/01/11 09:04:00;;;;;;;;;;;14.00;99.90;;;;;;5037480;28;873;-45
2022/01/11 09:06:27;;;;;;;;;;;14.00;99.90;;;;;;5055695;28;870;-45
2022/01/11 09:08:53;;;;;;;;;;;14.00;99.90;;;;;;5058097;28;762;-45
2022/01/11 09:11:19;;;;;;;;;;;14.10;99.90;;;;;;5058164;28;758;-44
2022/01/11 09:13:46;;;;;;;;;;;14.10;99.90;;;;;;5058208;28;845;-45
2022/01/11 09:16:13;;;;;;;;;;;14.20;99.90;;;;;;5050377;28;1980;-44
2022/01/11 09:18:39;;;;;;;;;;;14.20;99.90;;;;;;5049354;28;1187;-44
2022/01/11 09:21:05;;;;;;;;;;;14.20;99.90;;;;;;5050307;28;928;-44
2022/01/11 09:23:32;;;;;;;;;;;14.30;99.90;;;;;;5040401;28;1327;-44
2022/01/11 09:25:59;;;;;;;;;;;14.30;99.90;;;;;;5053647;28;1005;-44
2022/01/11 09:28:26;;;;;;;;;;;14.30;99.90;;;;;;5057463;28;1756;-45
2022/01/11 09:30:52;;;;;;;;;;;14.40;99.90;;;;;;5050531;28;1155;-44
2022/01/11 09:33:18;;;;;;;;;;;14.40;99.90;;;;;;5053765;28;1202;-55
2022/01/11 09:35:44;;;;;;;;;;;14.50;99.90;;;;;;5055397;28;1971;-54
2022/01/11 09:38:10;;;;;;;;;;;14.50;99.90;;;;;;5053954;28;1265;-45
2022/01/11 09:40:38;;;;;;;;;;;14.60;99.90;;;;;;5057631;28;1100;-45
2022/01/11 09:43:05;;;;;;;;;;;14.70;99.90;;;;;;5054740;28;1043;-45
2022/01/11 09:45:31;;;;;;;;;;;14.70;99.90;;;;;;5045385;28;1163;-45
2022/01/11 09:47:57;;;;;;;;;;;14.80;99.90;;;;;;5039192;28;853;-45
2022/01/11 09:50:23;;;;;;;;;;;14.90;99.90;;;;;;5039119;28;811;-45
2022/01/11 09:52:49;;;;;;;;;;;14.90;99.90;;;;;;5026666;28;1318;-45
2022/01/11 09:55:16;;;;;;;;;;;15.00;99.90;;;;;;5057716;28;1906;-47
2022/01/11 09:57:42;;;;;;;;;;;15.10;99.90;;;;;;5057514;28;1037;-45
2022/01/11 10:00:10;;;;;;;;;;;15.10;99.90;;;;;;5057422;28;856;-54
2022/01/11 10:02:36;;;;;;;;;;;15.20;99.90;;;;;;5057209;28;810;-55
2022/01/11 10:05:05;;;;;;;;;;;15.20;99.90;;;;;;5039012;28;1080;-55
2022/01/11 10:07:33;;;;;;;;;;;15.30;99.90;;;;;;5050154;28;1221;-55
2022/01/11 10:09:59;;;;;;;;;;;15.30;99.90;;;;;;5038781;28;828;-55
2022/01/11 10:12:29;;;;;;;;;;;15.30;99.90;;;;;;5038696;28;866;-56
2022/01/11 10:14:57;;;;;;;;;;;15.30;99.90;;;;;;5042665;28;1993;-55
2022/01/11 10:17:24;;;;;;;;;;;15.20;99.90;;;;;;5027141;28;1086;-54
2022/01/11 10:19:58;;;;;;;;;;;15.30;99.90;;;;;;5054035;28;1127;-55
2022/01/11 10:22:25;;;;;;;;;;;15.30;99.90;;;;;;5054466;28;1030;-55
2022/01/11 10:24:52;;;;;;;;;;;15.30;99.90;;;;;;5038842;28;1751;-55
2022/01/11 10:27:20;;;;;;;;;;;15.40;99.90;;;;;;5038848;28;1179;-55
2022/01/11 10:29:51;;;;;;;;;;;15.50;99.90;;;;;;5054504;28;1175;-54
2022/01/11 10:32:17;;;;;;;;;;;15.60;99.90;;;;;;5055692;28;1012;-56
2022/01/11 10:34:47;;;;;;;;;;;15.60;99.90;;;;;;5054494;28;1979;-55
2022/01/11 10:37:16;;;;;;;;;;;15.70;99.90;;;;;;5052589;28;1103;-55
2022/01/11 10:39:44;;;;;;;;;;;15.80;99.90;;;;;;5053056;28;1432;-56
2022/01/11 10:42:38;;;;;;;;;;;15.80;99.90;;;;;;5050719;28;1096;-45
2022/01/11 10:45:07;;;;;;;;;;;15.90;99.90;;;;;;5049344;28;1312;-45
2022/01/11 10:47:35;;;;;;;;;;;16.00;99.90;;;;;;5054017;28;1262;-43
2022/01/11 10:50:26;;;;;;;;;;;16.10;99.90;;;;;;5056292;28;845;-44
2022/01/11 10:52:52;;;;;;;;;;;16.10;99.90;;;;;;5055757;28;814;-44
2022/01/11 10:55:19;;;;;;;;;;;16.20;99.90;;;;;;5055997;28;1973;-43
2022/01/11 10:57:49;;;;;;;;;;;16.20;99.90;;;;;;5054590;28;1075;-44
2022/01/11 11:00:17;;;;;;;;;;;16.30;99.90;;;;;;5054693;28;1104;-44
2022/01/11 11:02:49;;;;;;;;;;;16.30;99.90;;;;;;5055554;28;873;-43
2022/01/11 11:05:23;;;;;;;;;;;16.30;99.90;;;;;;5055323;28;1009;-46
2022/01/11 11:07:53;;;;;;;;;;;16.30;99.90;;;;;;5055946;28;761;-45
2022/01/11 11:10:40;;;;;;;;;;;16.20;99.90;;;;;;5055802;28;1016;-45
2022/01/11 11:13:09;;;;;;;;;;;16.20;99.90;;;;;;5055468;28;1254;-45
2022/01/11 11:15:37;;;;;;;;;;;16.20;99.90;;;;;;5048507;28;1977;-45
2022/01/11 11:18:05;;;;;;;;;;;16.20;99.90;;;;;;5037478;28;791;-55
2022/01/11 11:20:32;;;;;;;;;;;16.20;99.90;;;;;;5019565;28;913;-54
2022/01/11 11:22:58;;;;;;;;;;;16.30;99.90;;;;;;5002973;28;932;-55
2022/01/11 11:25:25;;;;;;;;;;;16.30;99.90;;;;;;5050295;28;1038;-55
2022/01/11 11:27:53;;;;;;;;;;;16.30;99.90;;;;;;5058758;28;1101;-45
2022/01/11 11:30:19;;;;;;;;;;;16.30;99.90;;;;;;5050403;28;1462;-55
2022/01/11 11:32:46;;;;;;;;;;;16.30;99.90;;;;;;5055255;28;974;-45
2022/01/11 11:35:14;;;;;;;;;;;16.30;99.90;;;;;;5054663;28;1911;-45
2022/01/11 11:37:42;;;;;;;;;;;16.30;99.90;;;;;;5055340;28;861;-56
2022/01/11 11:40:30;;;;;;;;;;;16.30;99.90;;;;;;5052282;28;1124;-56
2022/01/11 11:42:59;;;;;;;;;;;16.30;99.90;;;;;;5070441;22;1865;-45
2022/01/11 11:45:26;;;;;;;;;;;16.30;99.90;;;;;;5075406;28;1664;-45
2022/01/11 11:48:03;;;;;;;;;;;16.30;99.90;;;;;;5076717;28;1502;-45
2022/01/11 11:50:29;;;;;;;;;;;16.30;99.90;;;;;;5086841;28;1087;-45
2022/01/11 11:52:55;;;;;;;;;;;16.30;99.90;;;;;;5075049;28;1652;-55
2022/01/11 11:55:22;;;;;;;;;;;16.30;99.90;;;;;;5074471;28;1902;-55
2022/01/11 11:57:56;;;;;;;;;;;16.30;99.90;;;;;;5080101;28;1201;-45
2022/01/11 12:00:33;;;;;;;;;;;16.40;99.90;;;;;;5075254;28;1428;-45
2022/01/11 12:03:00;;;;;;;;;;;16.30;99.90;;;;;;5074967;28;1567;-45
2022/01/11 12:05:40;;;;;;;;;;;16.30;99.90;;;;;;5077237;28;879;-45
2022/01/11 12:08:31;;;;;;;;;;;16.30;99.90;;;;;;5075467;28;865;-45
2022/01/11 12:11:02;;;;;;;;;;;16.30;99.90;;;;;;5075688;28;911;-56
2022/01/11 12:13:42;;;;;;;;;;;16.30;99.90;;;;;;5075125;28;975;-56
2022/01/11 12:16:24;;;;;;;;;;;16.30;99.90;;;;;;5075449;28;1965;-56
2022/01/11 12:18:55;;;;;;;;;;;16.30;99.90;;;;;;5075416;28;1105;-56
2022/01/11 12:21:22;;;;;;;;;;;16.30;99.90;;;;;;5068497;28;944;-55
2022/01/11 12:23:53;;;;;;;;;;;16.40;99.90;;;;;;5079506;28;992;-45
2022/01/11 12:26:21;;;;;;;;;;;16.40;99.90;;;;;;5069120;28;1767;-45
2022/01/11 12:29:12;;;;;;;;;;;16.40;99.90;;;;;;5075166;28;1170;-45
2022/01/11 12:31:38;;;;;;;;;;;16.40;99.90;;;;;;5070221;28;1144;-45
2022/01/11 12:34:08;;;;;;;;;;;16.40;99.90;;;;;;5075443;28;785;-45
2022/01/11 12:36:52;;;;;;;;;;;16.50;99.90;;;;;;5075281;28;1902;-45
2022/01/11 12:39:19;;;;;;;;;;;16.50;99.90;;;;;;5075096;28;1044;-45
2022/01/11 12:41:45;;;;;;;;;;;16.50;99.90;;;;;;5078218;28;885;-46
2022/01/11 12:44:25;;;;;;;;;;;16.50;99.90;;;;;;5078591;28;1183;-55
2022/01/11 12:46:55;;;;;;;;;;;16.60;99.90;;;;;;5079455;28;901;-56
2022/01/11 12:49:22;;;;;;;;;;;16.60;99.90;;;;;;5074572;28;899;-46
2022/01/11 12:51:52;;;;;;;;;;;16.70;99.90;;;;;;5079265;28;1625;-45
2022/01/11 12:54:23;;;;;;;;;;;16.70;99.90;;;;;;5079201;28;879;-46
2022/01/11 12:56:54;;;;;;;;;;;16.70;99.90;;;;;;5078151;28;1969;-56
2022/01/11 12:59:20;;;;;;;;;;;16.70;99.90;;;;;;5078503;28;1013;-56
2022/01/11 13:01:46;;;;;;;;;;;16.80;99.90;;;;;;5079254;28;843;-56
2022/01/11 13:04:13;;;;;;;;;;;16.80;99.90;;;;;;5078936;28;921;-55
2022/01/11 13:06:39;;;;;;;;;;;16.80;99.90;;;;;;5079140;28;903;-56
2022/01/11 13:09:09;;;;;;;;;;;16.80;99.90;;;;;;5078987;28;894;-55
2022/01/11 13:11:38;;;;;;;;;;;16.90;99.90;;;;;;5077416;28;962;-55
2022/01/11 13:14:52;;;;;;;;;;;16.90;99.90;;;;;;5078333;28;805;-55
2022/01/11 13:16:57;;;;;;;;;;;16.90;99.90;;;;;;5070678;28;1898;-56
2022/01/11 13:19:23;;;;;;;;;;;16.90;99.90;;;;;;5079050;28;746;-56
2022/01/11 13:21:50;;;;;;;;;;;16.90;99.90;;;;;;5078540;28;806;-56
2022/01/11 13:26:47;;;;;;;;;;;17.00;99.90;;;;;;5078581;28;765;-56
2022/01/11 13:29:15;;;;;;;;;;;17.00;99.90;;;;;;5078288;28;914;-45
2022/01/11 13:31:41;;;;;;;;;;;17.10;99.90;;;;;;5078478;28;913;-47
2022/01/11 13:34:13;;;;;;;;;;;17.10;99.90;;;;;;5078476;28;812;-45
2022/01/11 13:36:42;;;;;;;;;;;17.10;99.90;;;;;;5078560;28;1902;-45
2022/01/11 13:39:08;;;;;;;;;;;17.10;99.90;;;;;;5079369;28;1549;-45
2022/01/11 13:41:45;;;;;;;;;;;17.20;99.90;;;;;;5077793;28;1233;-45
2022/01/11 13:44:12;;;;;;;;;;;17.20;99.90;;;;;;5076146;28;1340;-46
2022/01/11 13:46:40;;;;;;;;;;;17.20;99.90;;;;;;5078181;28;926;-46
2022/01/11 13:49:11;;;;;;;;;;;17.20;99.90;;;;;;5077703;28;876;-46
2022/01/11 13:51:37;;;;;;;;;;;17.30;99.90;;;;;;5076355;28;1557;-46
2022/01/11 13:54:06;;;;;;;;;;;17.30;99.90;;;;;;5076157;28;1274;-46
2022/01/11 13:56:39;;;;;;;;;;;17.30;99.90;;;;;;5077463;28;1967;-46
2022/01/11 13:59:05;;;;;;;;;;;17.30;99.90;;;;;;5077838;28;770;-46
2022/01/11 14:01:31;;;;;;;;;;;17.40;99.90;;;;;;5078062;28;758;-46
2022/01/11 14:04:08;;;;;;;;;;;17.40;99.90;;;;;;5077982;28;769;-46
2022/01/11 14:06:47;;;;;;;;;;;17.50;99.90;;;;;;5078026;28;821;-46
2022/01/11 14:09:22;;;;;;;;;;;17.40;99.90;;;;;;5077167;28;770;-46
2022/01/11 14:12:04;;;;;;;;;;;17.40;99.90;;;;;;5078127;28;733;-46
2022/01/11 14:14:37;;;;;;;;;;;17.40;99.90;;;;;;5076070;28;975;-46
2022/01/11 14:17:15;;;;;;;;;;;17.40;99.90;;;;;;5077641;28;1905;-57
2022/01/11 14:20:01;;;;;;;;;;;17.40;99.90;;;;;;5074979;28;1035;-56
2022/01/11 14:22:40;;;;;;;;;;;17.40;99.90;;;;;;5075108;28;1257;-56
2022/01/11 14:25:10;;;;;;;;;;;17.40;99.90;;;;;;5077091;28;947;-56
2022/01/11 14:27:37;;;;;;;;;;;17.40;99.90;;;;;;5077122;28;897;-57
2022/01/11 14:30:14;;;;;;;;;;;17.40;99.90;;;;;;5077612;28;762;-57
2022/01/11 14:32:46;;;;;;;;;;;17.40;99.90;;;;;;5077660;28;852;-57
2022/01/11 14:35:13;;;;;;;;;;;17.40;99.90;;;;;;5075695;28;1906;-56
2022/01/11 14:37:39;;;;;;;;;;;17.30;99.90;;;;;;5078590;28;1297;-57
2022/01/11 14:40:16;;;;;;;;;;;17.30;99.90;;;;;;5077179;28;809;-56
2022/01/11 14:42:42;;;;;;;;;;;17.30;99.90;;;;;;5075284;28;1159;-57
2022/01/11 14:45:13;;;;;;;;;;;17.30;99.90;;;;;;5077126;28;885;-57
2022/01/11 14:47:50;;;;;;;;;;;17.30;99.90;;;;;;5077034;28;878;-56
2022/01/11 14:50:18;;;;;;;;;;;17.30;99.90;;;;;;5071702;28;1501;-57
2022/01/11 14:52:50;;;;;;;;;;;17.30;99.90;;;;;;5077126;28;875;-57
2022/01/11 14:55:18;;;;;;;;;;;17.30;99.90;;;;;;5074968;28;1909;-57
2022/01/11 14:57:45;;;;;;;;;;;17.30;99.90;;;;;;5077147;28;1099;-57
2022/01/11 15:00:24;;;;;;;;;;;17.30;99.90;;;;;;5076320;28;810;-57